sensor_id;sensor_type;location;lat;lon;timestamp;P1;durP1;ratioP1;P2;durP2;ratioP2
21181;SDS011;10749;46.296;7.524;2022-08-19T00:00:14;8.95;;;2.83;;
21181;SDS011;10749;46.296;7.524;2022-08-19T00:02:40;5.13;;;3.00;;
21181;SDS011;10749;46.296;7.524;2022-08-19T00:05:06;3.38;;;2.90;;
21181;SDS011;10749;46.296;7.524;2022-08-19T00:07:32;4.97;;;3.47;;
21181;SDS011;10749;46.296;7.524;2022-08-19T00:09:58;10.10;;;3.38;;
21181;SDS011;10749;46.296;7.524;2022-08-19T00:12:23;5.97;;;3.50;;
21181;SDS011;10749;46.296;7.524;2022-08-19T00:14:48;3.75;;;3.33;;
21181;SDS011;10749;46.296;7.524;2022-08-19T00:17:13;4.50;;;3.05;;
21181;SDS011;10749;46.296;7.524;2022-08-19T00:19:39;3.92;;;2.92;;
21181;SDS011;10749;46.296;7.524;2022-08-19T00:22:05;4.03;;;2.58;;
21181;SDS011;10749;46.296;7.524;2022-08-19T00:24:33;3.90;;;3.28;;
21181;SDS011;10749;46.296;7.524;2022-08-19T00:26:59;5.82;;;3.05;;
21181;SDS011;10749;46.296;7.524;2022-08-19T00:29:26;5.03;;;3.00;;
21181;SDS011;10749;46.296;7.524;2022-08-19T00:31:52;3.58;;;2.75;;
21181;SDS011;10749;46.296;7.524;2022-08-19T00:34:21;3.90;;;2.90;;
21181;SDS011;10749;46.296;7.524;2022-08-19T00:36:47;4.97;;;2.97;;
21181;SDS011;10749;46.296;7.524;2022-08-19T00:39:13;2.80;;;2.50;;
21181;SDS011;10749;46.296;7.524;2022-08-19T00:41:40;5.03;;;3.50;;
21181;SDS011;10749;46.296;7.524;2022-08-19T00:44:11;9.05;;;3.10;;
21181;SDS011;10749;46.296;7.524;2022-08-19T00:46:40;3.67;;;3.15;;
21181;SDS011;10749;46.296;7.524;2022-08-19T00:49:09;3.25;;;2.90;;
21181;SDS011;10749;46.296;7.524;2022-08-19T00:51:44;4.82;;;3.22;;
21181;SDS011;10749;46.296;7.524;2022-08-19T00:54:13;6.00;;;3.47;;
21181;SDS011;10749;46.296;7.524;2022-08-19T00:56:39;5.53;;;3.58;;
21181;SDS011;10749;46.296;7.524;2022-08-19T00:59:06;6.03;;;3.10;;
21181;SDS011;10749;46.296;7.524;2022-08-19T01:01:37;5.20;;;3.45;;
21181;SDS011;10749;46.296;7.524;2022-08-19T01:04:04;5.75;;;3.35;;
21181;SDS011;10749;46.296;7.524;2022-08-19T01:06:30;7.22;;;3.50;;
21181;SDS011;10749;46.296;7.524;2022-08-19T01:08:57;4.80;;;3.53;;
21181;SDS011;10749;46.296;7.524;2022-08-19T01:11:24;5.07;;;3.38;;
21181;SDS011;10749;46.296;7.524;2022-08-19T01:13:51;9.50;;;3.47;;
21181;SDS011;10749;46.296;7.524;2022-08-19T01:16:18;4.50;;;3.53;;
21181;SDS011;10749;46.296;7.524;2022-08-19T01:18:46;7.07;;;3.90;;
21181;SDS011;10749;46.296;7.524;2022-08-19T01:21:18;8.45;;;3.60;;
21181;SDS011;10749;46.296;7.524;2022-08-19T01:24:04;6.50;;;3.60;;
21181;SDS011;10749;46.296;7.524;2022-08-19T01:26:29;6.78;;;3.45;;
21181;SDS011;10749;46.296;7.524;2022-08-19T01:28:56;5.97;;;3.15;;
21181;SDS011;10749;46.296;7.524;2022-08-19T01:31:24;4.18;;;3.13;;
21181;SDS011;10749;46.296;7.524;2022-08-19T01:33:56;5.57;;;3.55;;
21181;SDS011;10749;46.296;7.524;2022-08-19T01:36:32;5.47;;;3.90;;
21181;SDS011;10749;46.296;7.524;2022-08-19T01:39:05;5.28;;;3.40;;
21181;SDS011;10749;46.296;7.524;2022-08-19T01:41:33;6.22;;;3.50;;
21181;SDS011;10749;46.296;7.524;2022-08-19T01:43:59;4.05;;;3.42;;
21181;SDS011;10749;46.296;7.524;2022-08-19T01:46:25;5.95;;;3.55;;
21181;SDS011;10749;46.296;7.524;2022-08-19T01:48:51;3.90;;;3.15;;
21181;SDS011;10749;46.296;7.524;2022-08-19T01:51:16;3.40;;;3.10;;
21181;SDS011;10749;46.296;7.524;2022-08-19T01:53:42;4.57;;;3.13;;
21181;SDS011;10749;46.296;7.524;2022-08-19T01:56:11;4.60;;;3.15;;
21181;SDS011;10749;46.296;7.524;2022-08-19T01:58:38;6.57;;;3.70;;
21181;SDS011;10749;46.296;7.524;2022-08-19T02:01:11;5.78;;;3.33;;
21181;SDS011;10749;46.296;7.524;2022-08-19T02:03:36;7.05;;;3.75;;
21181;SDS011;10749;46.296;7.524;2022-08-19T02:06:02;8.32;;;3.67;;
21181;SDS011;10749;46.296;7.524;2022-08-19T02:08:30;5.18;;;3.58;;
21181;SDS011;10749;46.296;7.524;2022-08-19T02:10:56;6.15;;;3.88;;
21181;SDS011;10749;46.296;7.524;2022-08-19T02:13:22;10.05;;;3.97;;
21181;SDS011;10749;46.296;7.524;2022-08-19T02:15:47;6.40;;;3.78;;
21181;SDS011;10749;46.296;7.524;2022-08-19T02:18:13;6.72;;;3.33;;
21181;SDS011;10749;46.296;7.524;2022-08-19T02:20:39;4.70;;;3.75;;
21181;SDS011;10749;46.296;7.524;2022-08-19T02:23:06;5.82;;;3.95;;
21181;SDS011;10749;46.296;7.524;2022-08-19T02:25:32;6.93;;;3.72;;
21181;SDS011;10749;46.296;7.524;2022-08-19T02:27:57;6.85;;;3.83;;
21181;SDS011;10749;46.296;7.524;2022-08-19T02:30:22;5.07;;;3.50;;
21181;SDS011;10749;46.296;7.524;2022-08-19T02:32:49;5.13;;;3.80;;
21181;SDS011;10749;46.296;7.524;2022-08-19T02:35:16;7.10;;;3.83;;
21181;SDS011;10749;46.296;7.524;2022-08-19T02:37:42;7.47;;;3.67;;
21181;SDS011;10749;46.296;7.524;2022-08-19T02:40:28;5.75;;;3.83;;
21181;SDS011;10749;46.296;7.524;2022-08-19T02:42:58;5.70;;;3.75;;
21181;SDS011;10749;46.296;7.524;2022-08-19T02:45:24;5.03;;;3.40;;
21181;SDS011;10749;46.296;7.524;2022-08-19T02:47:49;7.80;;;3.83;;
21181;SDS011;10749;46.296;7.524;2022-08-19T02:50:14;6.13;;;3.53;;
21181;SDS011;10749;46.296;7.524;2022-08-19T02:52:40;6.22;;;3.40;;
21181;SDS011;10749;46.296;7.524;2022-08-19T02:55:06;4.45;;;3.40;;
21181;SDS011;10749;46.296;7.524;2022-08-19T02:57:31;5.53;;;3.53;;
21181;SDS011;10749;46.296;7.524;2022-08-19T02:59:57;9.52;;;3.83;;
21181;SDS011;10749;46.296;7.524;2022-08-19T03:02:22;8.48;;;3.90;;
21181;SDS011;10749;46.296;7.524;2022-08-19T03:04:48;9.00;;;3.92;;
21181;SDS011;10749;46.296;7.524;2022-08-19T03:07:14;8.45;;;4.13;;
21181;SDS011;10749;46.296;7.524;2022-08-19T03:09:40;12.23;;;4.43;;
21181;SDS011;10749;46.296;7.524;2022-08-19T03:12:08;10.90;;;4.57;;
21181;SDS011;10749;46.296;7.524;2022-08-19T03:14:34;12.27;;;4.70;;
21181;SDS011;10749;46.296;7.524;2022-08-19T03:17:00;9.68;;;4.40;;
21181;SDS011;10749;46.296;7.524;2022-08-19T03:19:26;8.95;;;4.55;;
21181;SDS011;10749;46.296;7.524;2022-08-19T03:21:52;10.43;;;4.45;;
21181;SDS011;10749;46.296;7.524;2022-08-19T03:24:18;9.38;;;4.10;;
21181;SDS011;10749;46.296;7.524;2022-08-19T03:26:45;11.40;;;4.93;;
21181;SDS011;10749;46.296;7.524;2022-08-19T03:29:14;9.63;;;4.63;;
21181;SDS011;10749;46.296;7.524;2022-08-19T03:31:41;9.73;;;4.35;;
21181;SDS011;10749;46.296;7.524;2022-08-19T03:34:08;6.88;;;4.07;;
21181;SDS011;10749;46.296;7.524;2022-08-19T03:36:36;7.65;;;4.25;;
21181;SDS011;10749;46.296;7.524;2022-08-19T03:39:02;5.75;;;3.80;;
21181;SDS011;10749;46.296;7.524;2022-08-19T03:41:32;7.22;;;3.80;;
21181;SDS011;10749;46.296;7.524;2022-08-19T03:44:01;5.88;;;3.50;;
21181;SDS011;10749;46.296;7.524;2022-08-19T03:46:27;6.75;;;3.50;;
21181;SDS011;10749;46.296;7.524;2022-08-19T03:48:55;6.18;;;3.67;;
21181;SDS011;10749;46.296;7.524;2022-08-19T03:53:49;7.07;;;3.95;;
21181;SDS011;10749;46.296;7.524;2022-08-19T03:56:15;8.43;;;4.30;;
21181;SDS011;10749;46.296;7.524;2022-08-19T03:58:40;7.50;;;3.95;;
21181;SDS011;10749;46.296;7.524;2022-08-19T04:01:07;9.52;;;4.50;;
21181;SDS011;10749;46.296;7.524;2022-08-19T04:03:34;11.15;;;4.40;;
21181;SDS011;10749;46.296;7.524;2022-08-19T04:06:08;9.90;;;4.43;;
21181;SDS011;10749;46.296;7.524;2022-08-19T04:08:50;10.18;;;4.40;;
21181;SDS011;10749;46.296;7.524;2022-08-19T04:11:19;10.05;;;4.32;;
21181;SDS011;10749;46.296;7.524;2022-08-19T04:13:47;8.80;;;4.18;;
21181;SDS011;10749;46.296;7.524;2022-08-19T04:16:13;7.55;;;4.50;;
21181;SDS011;10749;46.296;7.524;2022-08-19T04:18:40;11.93;;;4.50;;
21181;SDS011;10749;46.296;7.524;2022-08-19T04:21:06;8.73;;;4.22;;
21181;SDS011;10749;46.296;7.524;2022-08-19T04:23:33;7.80;;;4.80;;
21181;SDS011;10749;46.296;7.524;2022-08-19T04:26:01;9.32;;;4.45;;
21181;SDS011;10749;46.296;7.524;2022-08-19T04:28:27;6.85;;;4.43;;
21181;SDS011;10749;46.296;7.524;2022-08-19T04:30:53;6.85;;;4.25;;
21181;SDS011;10749;46.296;7.524;2022-08-19T04:33:21;6.05;;;3.75;;
21181;SDS011;10749;46.296;7.524;2022-08-19T04:35:49;6.45;;;4.00;;
21181;SDS011;10749;46.296;7.524;2022-08-19T04:38:16;7.25;;;4.05;;
21181;SDS011;10749;46.296;7.524;2022-08-19T04:40:44;5.78;;;3.80;;
21181;SDS011;10749;46.296;7.524;2022-08-19T04:43:34;5.95;;;4.20;;
21181;SDS011;10749;46.296;7.524;2022-08-19T04:46:19;6.40;;;3.80;;
21181;SDS011;10749;46.296;7.524;2022-08-19T04:48:44;7.28;;;4.32;;
21181;SDS011;10749;46.296;7.524;2022-08-19T04:51:11;6.57;;;4.45;;
21181;SDS011;10749;46.296;7.524;2022-08-19T04:53:38;6.47;;;3.65;;
21181;SDS011;10749;46.296;7.524;2022-08-19T04:56:07;7.15;;;3.67;;
21181;SDS011;10749;46.296;7.524;2022-08-19T04:58:35;4.18;;;3.33;;
21181;SDS011;10749;46.296;7.524;2022-08-19T05:01:02;6.05;;;3.47;;
21181;SDS011;10749;46.296;7.524;2022-08-19T05:03:28;4.43;;;2.83;;
21181;SDS011;10749;46.296;7.524;2022-08-19T05:05:58;4.60;;;3.00;;
21181;SDS011;10749;46.296;7.524;2022-08-19T05:08:30;2.72;;;2.38;;
21181;SDS011;10749;46.296;7.524;2022-08-19T05:10:55;3.92;;;2.15;;
21181;SDS011;10749;46.296;7.524;2022-08-19T05:13:22;4.35;;;2.22;;
21181;SDS011;10749;46.296;7.524;2022-08-19T05:15:55;3.88;;;2.33;;
21181;SDS011;10749;46.296;7.524;2022-08-19T05:18:23;5.45;;;2.47;;
21181;SDS011;10749;46.296;7.524;2022-08-19T05:21:08;3.83;;;2.05;;
21181;SDS011;10749;46.296;7.524;2022-08-19T05:23:54;3.15;;;2.28;;
21181;SDS011;10749;46.296;7.524;2022-08-19T05:26:19;3.80;;;2.15;;
21181;SDS011;10749;46.296;7.524;2022-08-19T05:28:44;2.67;;;2.05;;
21181;SDS011;10749;46.296;7.524;2022-08-19T05:31:10;2.38;;;2.10;;
21181;SDS011;10749;46.296;7.524;2022-08-19T05:33:35;3.80;;;2.00;;
21181;SDS011;10749;46.296;7.524;2022-08-19T05:36:01;3.35;;;2.10;;
21181;SDS011;10749;46.296;7.524;2022-08-19T05:38:27;2.33;;;1.98;;
21181;SDS011;10749;46.296;7.524;2022-08-19T05:40:54;2.92;;;2.15;;
21181;SDS011;10749;46.296;7.524;2022-08-19T05:43:20;4.18;;;2.15;;
21181;SDS011;10749;46.296;7.524;2022-08-19T05:45:45;3.08;;;2.10;;
21181;SDS011;10749;46.296;7.524;2022-08-19T05:48:11;2.28;;;1.77;;
21181;SDS011;10749;46.296;7.524;2022-08-19T05:50:37;4.07;;;2.08;;
21181;SDS011;10749;46.296;7.524;2022-08-19T05:53:04;2.00;;;1.80;;
21181;SDS011;10749;46.296;7.524;2022-08-19T05:55:29;3.80;;;1.98;;
21181;SDS011;10749;46.296;7.524;2022-08-19T05:57:55;3.83;;;1.98;;
21181;SDS011;10749;46.296;7.524;2022-08-19T06:00:20;2.95;;;1.70;;
21181;SDS011;10749;46.296;7.524;2022-08-19T06:02:45;2.70;;;1.90;;
21181;SDS011;10749;46.296;7.524;2022-08-19T06:05:11;2.22;;;2.03;;
21181;SDS011;10749;46.296;7.524;2022-08-19T06:07:36;3.30;;;2.25;;
21181;SDS011;10749;46.296;7.524;2022-08-19T06:10:07;3.10;;;2.00;;
21181;SDS011;10749;46.296;7.524;2022-08-19T06:12:35;2.30;;;2.10;;
21181;SDS011;10749;46.296;7.524;2022-08-19T06:15:03;2.47;;;2.03;;
21181;SDS011;10749;46.296;7.524;2022-08-19T06:17:32;2.72;;;2.45;;
21181;SDS011;10749;46.296;7.524;2022-08-19T06:19:59;3.03;;;2.20;;
21181;SDS011;10749;46.296;7.524;2022-08-19T06:22:25;2.75;;;2.45;;
21181;SDS011;10749;46.296;7.524;2022-08-19T06:24:51;2.95;;;2.20;;
21181;SDS011;10749;46.296;7.524;2022-08-19T06:27:18;3.50;;;2.78;;
21181;SDS011;10749;46.296;7.524;2022-08-19T06:29:44;3.63;;;2.70;;
21181;SDS011;10749;46.296;7.524;2022-08-19T06:32:11;3.47;;;2.20;;
21181;SDS011;10749;46.296;7.524;2022-08-19T06:34:39;3.75;;;2.35;;
21181;SDS011;10749;46.296;7.524;2022-08-19T06:37:06;2.92;;;2.45;;
21181;SDS011;10749;46.296;7.524;2022-08-19T06:39:32;3.55;;;2.40;;
21181;SDS011;10749;46.296;7.524;2022-08-19T06:42:03;4.78;;;2.30;;
21181;SDS011;10749;46.296;7.524;2022-08-19T06:44:32;3.33;;;2.05;;
21181;SDS011;10749;46.296;7.524;2022-08-19T06:47:00;4.28;;;2.35;;
21181;SDS011;10749;46.296;7.524;2022-08-19T06:49:27;3.00;;;2.50;;
21181;SDS011;10749;46.296;7.524;2022-08-19T06:51:56;2.63;;;2.30;;
21181;SDS011;10749;46.296;7.524;2022-08-19T06:54:22;3.78;;;2.35;;
21181;SDS011;10749;46.296;7.524;2022-08-19T06:56:48;4.15;;;2.35;;
21181;SDS011;10749;46.296;7.524;2022-08-19T06:59:14;5.80;;;2.60;;
21181;SDS011;10749;46.296;7.524;2022-08-19T07:01:44;2.65;;;2.10;;
21181;SDS011;10749;46.296;7.524;2022-08-19T07:04:13;2.10;;;1.83;;
21181;SDS011;10749;46.296;7.524;2022-08-19T07:06:40;2.67;;;2.20;;
21181;SDS011;10749;46.296;7.524;2022-08-19T07:09:07;2.83;;;2.40;;
21181;SDS011;10749;46.296;7.524;2022-08-19T07:11:34;3.58;;;2.30;;
21181;SDS011;10749;46.296;7.524;2022-08-19T07:14:00;2.03;;;1.60;;
21181;SDS011;10749;46.296;7.524;2022-08-19T07:16:26;3.90;;;1.90;;
21181;SDS011;10749;46.296;7.524;2022-08-19T07:18:53;2.53;;;1.70;;
21181;SDS011;10749;46.296;7.524;2022-08-19T07:21:20;4.05;;;1.70;;
21181;SDS011;10749;46.296;7.524;2022-08-19T07:23:48;2.40;;;1.80;;
21181;SDS011;10749;46.296;7.524;2022-08-19T07:26:16;2.20;;;1.70;;
21181;SDS011;10749;46.296;7.524;2022-08-19T07:28:44;2.05;;;1.63;;
21181;SDS011;10749;46.296;7.524;2022-08-19T07:31:11;2.90;;;1.90;;
21181;SDS011;10749;46.296;7.524;2022-08-19T07:33:38;2.97;;;2.15;;
21181;SDS011;10749;46.296;7.524;2022-08-19T07:36:05;4.63;;;1.77;;
21181;SDS011;10749;46.296;7.524;2022-08-19T07:38:33;1.90;;;1.70;;
21181;SDS011;10749;46.296;7.524;2022-08-19T07:40:59;1.65;;;1.55;;
21181;SDS011;10749;46.296;7.524;2022-08-19T07:43:25;2.58;;;1.85;;
21181;SDS011;10749;46.296;7.524;2022-08-19T07:45:52;2.58;;;1.60;;
21181;SDS011;10749;46.296;7.524;2022-08-19T07:48:21;3.28;;;1.77;;
21181;SDS011;10749;46.296;7.524;2022-08-19T07:50:49;2.35;;;1.73;;
21181;SDS011;10749;46.296;7.524;2022-08-19T07:53:15;1.95;;;1.63;;
21181;SDS011;10749;46.296;7.524;2022-08-19T07:55:40;2.17;;;1.70;;
21181;SDS011;10749;46.296;7.524;2022-08-19T07:58:06;2.17;;;1.65;;
21181;SDS011;10749;46.296;7.524;2022-08-19T08:00:31;3.33;;;1.60;;
21181;SDS011;10749;46.296;7.524;2022-08-19T08:02:57;1.58;;;1.45;;
21181;SDS011;10749;46.296;7.524;2022-08-19T08:05:23;1.95;;;1.58;;
21181;SDS011;10749;46.296;7.524;2022-08-19T08:08:07;2.17;;;1.98;;
21181;SDS011;10749;46.296;7.524;2022-08-19T08:10:51;2.95;;;1.77;;
21181;SDS011;10749;46.296;7.524;2022-08-19T08:13:16;2.40;;;1.80;;
21181;SDS011;10749;46.296;7.524;2022-08-19T08:15:41;3.17;;;1.75;;
21181;SDS011;10749;46.296;7.524;2022-08-19T08:18:10;3.92;;;1.98;;
21181;SDS011;10749;46.296;7.524;2022-08-19T08:20:36;2.25;;;1.73;;
21181;SDS011;10749;46.296;7.524;2022-08-19T08:23:01;3.00;;;1.90;;
21181;SDS011;10749;46.296;7.524;2022-08-19T08:25:45;2.97;;;1.50;;
21181;SDS011;10749;46.296;7.524;2022-08-19T08:28:15;3.22;;;1.80;;
21181;SDS011;10749;46.296;7.524;2022-08-19T08:30:41;2.13;;;1.60;;
21181;SDS011;10749;46.296;7.524;2022-08-19T08:33:08;2.50;;;1.50;;
21181;SDS011;10749;46.296;7.524;2022-08-19T08:35:35;2.63;;;1.85;;
21181;SDS011;10749;46.296;7.524;2022-08-19T08:38:00;2.53;;;1.88;;
21181;SDS011;10749;46.296;7.524;2022-08-19T08:40:30;3.55;;;1.90;;
21181;SDS011;10749;46.296;7.524;2022-08-19T08:43:02;2.42;;;1.65;;
21181;SDS011;10749;46.296;7.524;2022-08-19T08:45:32;3.53;;;1.92;;
21181;SDS011;10749;46.296;7.524;2022-08-19T08:48:02;2.17;;;1.38;;
21181;SDS011;10749;46.296;7.524;2022-08-19T08:50:42;1.88;;;1.65;;
21181;SDS011;10749;46.296;7.524;2022-08-19T08:53:10;2.03;;;1.80;;
21181;SDS011;10749;46.296;7.524;2022-08-19T08:55:40;3.15;;;2.05;;
21181;SDS011;10749;46.296;7.524;2022-08-19T08:58:09;2.30;;;1.83;;
21181;SDS011;10749;46.296;7.524;2022-08-19T09:00:43;2.38;;;2.17;;
21181;SDS011;10749;46.296;7.524;2022-08-19T09:03:31;2.05;;;1.83;;
21181;SDS011;10749;46.296;7.524;2022-08-19T09:06:03;3.45;;;2.40;;
21181;SDS011;10749;46.296;7.524;2022-08-19T09:17:06;3.28;;;2.50;;
21181;SDS011;10749;46.296;7.524;2022-08-19T09:19:35;4.25;;;2.90;;
21181;SDS011;10749;46.296;7.524;2022-08-19T09:22:22;3.67;;;2.78;;
21181;SDS011;10749;46.296;7.524;2022-08-19T09:24:51;4.35;;;2.90;;
21181;SDS011;10749;46.296;7.524;2022-08-19T09:27:20;4.32;;;3.05;;
21181;SDS011;10749;46.296;7.524;2022-08-19T09:29:50;5.68;;;2.88;;
21181;SDS011;10749;46.296;7.524;2022-08-19T09:32:16;4.65;;;3.20;;
21181;SDS011;10749;46.296;7.524;2022-08-19T09:34:42;5.85;;;2.80;;
21181;SDS011;10749;46.296;7.524;2022-08-19T09:37:08;4.18;;;3.58;;
21181;SDS011;10749;46.296;7.524;2022-08-19T09:39:34;5.13;;;3.38;;
21181;SDS011;10749;46.296;7.524;2022-08-19T09:41:59;4.32;;;3.20;;
21181;SDS011;10749;46.296;7.524;2022-08-19T09:44:24;3.67;;;3.33;;
21181;SDS011;10749;46.296;7.524;2022-08-19T09:46:50;5.43;;;3.53;;
21181;SDS011;10749;46.296;7.524;2022-08-19T09:49:16;5.47;;;3.70;;
21181;SDS011;10749;46.296;7.524;2022-08-19T09:51:43;5.95;;;4.13;;
21181;SDS011;10749;46.296;7.524;2022-08-19T09:54:09;5.70;;;3.92;;
21181;SDS011;10749;46.296;7.524;2022-08-19T09:56:34;5.55;;;4.15;;
21181;SDS011;10749;46.296;7.524;2022-08-19T09:59:01;5.38;;;4.38;;
21181;SDS011;10749;46.296;7.524;2022-08-19T10:01:29;6.05;;;4.70;;
21181;SDS011;10749;46.296;7.524;2022-08-19T10:03:56;5.85;;;4.40;;
21181;SDS011;10749;46.296;7.524;2022-08-19T10:06:24;5.47;;;4.07;;
21181;SDS011;10749;46.296;7.524;2022-08-19T10:08:54;4.70;;;4.30;;
21181;SDS011;10749;46.296;7.524;2022-08-19T10:11:19;4.82;;;4.30;;
21181;SDS011;10749;46.296;7.524;2022-08-19T10:13:45;5.15;;;4.65;;
21181;SDS011;10749;46.296;7.524;2022-08-19T10:16:12;5.15;;;4.68;;
21181;SDS011;10749;46.296;7.524;2022-08-19T10:18:40;5.35;;;4.85;;
21181;SDS011;10749;46.296;7.524;2022-08-19T10:21:10;5.53;;;4.97;;
21181;SDS011;10749;46.296;7.524;2022-08-19T10:23:36;7.30;;;5.20;;
21181;SDS011;10749;46.296;7.524;2022-08-19T10:26:04;5.65;;;5.13;;
21181;SDS011;10749;46.296;7.524;2022-08-19T10:28:31;6.35;;;5.30;;
21181;SDS011;10749;46.296;7.524;2022-08-19T10:31:06;6.05;;;5.45;;
21181;SDS011;10749;46.296;7.524;2022-08-19T10:33:33;8.75;;;5.97;;
21181;SDS011;10749;46.296;7.524;2022-08-19T10:36:00;7.05;;;6.13;;
21181;SDS011;10749;46.296;7.524;2022-08-19T10:38:26;6.07;;;5.43;;
21181;SDS011;10749;46.296;7.524;2022-08-19T10:40:53;6.00;;;5.40;;
21181;SDS011;10749;46.296;7.524;2022-08-19T10:43:19;5.20;;;4.70;;
21181;SDS011;10749;46.296;7.524;2022-08-19T10:45:48;6.13;;;5.57;;
21181;SDS011;10749;46.296;7.524;2022-08-19T10:48:17;6.30;;;5.70;;
21181;SDS011;10749;46.296;7.524;2022-08-19T10:50:42;6.68;;;6.07;;
21181;SDS011;10749;46.296;7.524;2022-08-19T10:53:26;6.40;;;5.38;;
21181;SDS011;10749;46.296;7.524;2022-08-19T10:55:51;6.00;;;5.40;;
21181;SDS011;10749;46.296;7.524;2022-08-19T10:58:35;8.30;;;6.10;;
21181;SDS011;10749;46.296;7.524;2022-08-19T11:01:00;6.15;;;5.55;;
21181;SDS011;10749;46.296;7.524;2022-08-19T11:03:26;6.32;;;5.28;;
21181;SDS011;10749;46.296;7.524;2022-08-19T11:06:02;7.38;;;5.32;;
21181;SDS011;10749;46.296;7.524;2022-08-19T11:08:30;5.75;;;5.22;;
21181;SDS011;10749;46.296;7.524;2022-08-19T11:10:57;6.93;;;5.65;;
21181;SDS011;10749;46.296;7.524;2022-08-19T11:13:29;7.03;;;4.55;;
21181;SDS011;10749;46.296;7.524;2022-08-19T11:16:01;4.55;;;4.10;;
21181;SDS011;10749;46.296;7.524;2022-08-19T11:18:42;5.25;;;4.50;;
21181;SDS011;10749;46.296;7.524;2022-08-19T11:21:18;4.97;;;4.47;;
21181;SDS011;10749;46.296;7.524;2022-08-19T11:23:47;4.25;;;3.85;;
21181;SDS011;10749;46.296;7.524;2022-08-19T11:26:14;4.72;;;3.80;;
21181;SDS011;10749;46.296;7.524;2022-08-19T11:28:41;4.25;;;3.83;;
21181;SDS011;10749;46.296;7.524;2022-08-19T11:31:14;3.85;;;3.55;;
21181;SDS011;10749;46.296;7.524;2022-08-19T11:33:41;4.03;;;3.63;;
21181;SDS011;10749;46.296;7.524;2022-08-19T11:36:07;4.00;;;3.60;;
21181;SDS011;10749;46.296;7.524;2022-08-19T11:38:33;4.00;;;3.60;;
21181;SDS011;10749;46.296;7.524;2022-08-19T11:41:01;3.55;;;3.25;;
21181;SDS011;10749;46.296;7.524;2022-08-19T11:43:29;3.58;;;3.28;;
21181;SDS011;10749;46.296;7.524;2022-08-19T11:45:56;3.65;;;3.17;;
21181;SDS011;10749;46.296;7.524;2022-08-19T11:48:22;3.65;;;3.13;;
21181;SDS011;10749;46.296;7.524;2022-08-19T11:50:48;4.47;;;3.78;;
21181;SDS011;10749;46.296;7.524;2022-08-19T11:53:14;3.83;;;3.40;;
21181;SDS011;10749;46.296;7.524;2022-08-19T11:55:40;3.42;;;3.13;;
21181;SDS011;10749;46.296;7.524;2022-08-19T11:58:07;3.75;;;3.33;;
21181;SDS011;10749;46.296;7.524;2022-08-19T12:00:33;4.07;;;3.55;;
21181;SDS011;10749;46.296;7.524;2022-08-19T12:03:00;6.40;;;3.70;;
21181;SDS011;10749;46.296;7.524;2022-08-19T12:05:26;4.80;;;3.53;;
21181;SDS011;10749;46.296;7.524;2022-08-19T12:07:51;3.58;;;3.28;;
21181;SDS011;10749;46.296;7.524;2022-08-19T12:10:16;5.38;;;3.30;;
21181;SDS011;10749;46.296;7.524;2022-08-19T12:12:42;4.15;;;3.25;;
21181;SDS011;10749;46.296;7.524;2022-08-19T12:15:08;4.38;;;3.67;;
21181;SDS011;10749;46.296;7.524;2022-08-19T12:17:35;3.50;;;3.20;;
21181;SDS011;10749;46.296;7.524;2022-08-19T12:20:01;3.60;;;3.30;;
21181;SDS011;10749;46.296;7.524;2022-08-19T12:22:27;4.25;;;3.45;;
21181;SDS011;10749;46.296;7.524;2022-08-19T12:24:53;4.22;;;3.80;;
21181;SDS011;10749;46.296;7.524;2022-08-19T12:27:19;4.10;;;3.67;;
21181;SDS011;10749;46.296;7.524;2022-08-19T12:29:45;5.35;;;3.75;;
21181;SDS011;10749;46.296;7.524;2022-08-19T12:32:11;5.47;;;3.58;;
21181;SDS011;10749;46.296;7.524;2022-08-19T12:34:36;4.50;;;3.75;;
21181;SDS011;10749;46.296;7.524;2022-08-19T12:37:03;3.88;;;3.45;;
21181;SDS011;10749;46.296;7.524;2022-08-19T12:39:34;4.75;;;3.60;;
21181;SDS011;10749;46.296;7.524;2022-08-19T12:42:04;4.25;;;3.85;;
21181;SDS011;10749;46.296;7.524;2022-08-19T12:44:30;3.80;;;3.40;;
21181;SDS011;10749;46.296;7.524;2022-08-19T12:46:57;5.15;;;4.10;;
21181;SDS011;10749;46.296;7.524;2022-08-19T12:49:23;4.88;;;3.95;;
21181;SDS011;10749;46.296;7.524;2022-08-19T12:51:49;4.40;;;4.00;;
21181;SDS011;10749;46.296;7.524;2022-08-19T12:54:15;5.28;;;4.55;;
21181;SDS011;10749;46.296;7.524;2022-08-19T12:56:40;4.70;;;4.30;;
21181;SDS011;10749;46.296;7.524;2022-08-19T12:59:07;4.95;;;4.00;;
21181;SDS011;10749;46.296;7.524;2022-08-19T13:01:33;6.63;;;4.45;;
21181;SDS011;10749;46.296;7.524;2022-08-19T13:03:58;4.93;;;4.22;;
21181;SDS011;10749;46.296;7.524;2022-08-19T13:06:24;7.50;;;5.03;;
21181;SDS011;10749;46.296;7.524;2022-08-19T13:08:50;4.78;;;4.28;;
21181;SDS011;10749;46.296;7.524;2022-08-19T13:11:17;5.22;;;4.68;;
21181;SDS011;10749;46.296;7.524;2022-08-19T13:13:46;5.97;;;4.45;;
21181;SDS011;10749;46.296;7.524;2022-08-19T13:16:13;5.47;;;4.40;;
21181;SDS011;10749;46.296;7.524;2022-08-19T13:18:39;6.88;;;4.90;;
21181;SDS011;10749;46.296;7.524;2022-08-19T13:21:07;5.43;;;4.72;;
21181;SDS011;10749;46.296;7.524;2022-08-19T13:23:34;5.38;;;4.88;;
21181;SDS011;10749;46.296;7.524;2022-08-19T13:26:02;6.57;;;5.10;;
21181;SDS011;10749;46.296;7.524;2022-08-19T13:28:30;5.80;;;5.28;;
21181;SDS011;10749;46.296;7.524;2022-08-19T13:31:20;6.28;;;5.07;;
21181;SDS011;10749;46.296;7.524;2022-08-19T13:34:06;5.82;;;5.00;;
21181;SDS011;10749;46.296;7.524;2022-08-19T13:36:32;6.45;;;5.57;;
21181;SDS011;10749;46.296;7.524;2022-08-19T13:38:58;5.95;;;5.35;;
21181;SDS011;10749;46.296;7.524;2022-08-19T13:41:24;6.13;;;5.38;;
21181;SDS011;10749;46.296;7.524;2022-08-19T13:43:49;6.57;;;4.90;;
21181;SDS011;10749;46.296;7.524;2022-08-19T13:46:15;6.35;;;5.47;;
21181;SDS011;10749;46.296;7.524;2022-08-19T13:48:41;6.20;;;4.90;;
21181;SDS011;10749;46.296;7.524;2022-08-19T13:51:07;6.60;;;5.30;;
21181;SDS011;10749;46.296;7.524;2022-08-19T13:53:35;6.45;;;5.00;;
21181;SDS011;10749;46.296;7.524;2022-08-19T13:56:05;5.60;;;5.10;;
21181;SDS011;10749;46.296;7.524;2022-08-19T13:58:31;6.13;;;5.53;;
21181;SDS011;10749;46.296;7.524;2022-08-19T14:00:57;7.70;;;5.38;;
21181;SDS011;10749;46.296;7.524;2022-08-19T14:03:23;7.13;;;5.43;;
21181;SDS011;10749;46.296;7.524;2022-08-19T14:05:49;5.55;;;4.97;;
21181;SDS011;10749;46.296;7.524;2022-08-19T14:08:14;5.78;;;5.10;;
21181;SDS011;10749;46.296;7.524;2022-08-19T14:10:40;6.57;;;5.97;;
21181;SDS011;10749;46.296;7.524;2022-08-19T14:13:07;6.53;;;5.80;;
21181;SDS011;10749;46.296;7.524;2022-08-19T14:15:33;6.28;;;5.68;;
21181;SDS011;10749;46.296;7.524;2022-08-19T14:17:59;8.00;;;6.00;;
21181;SDS011;10749;46.296;7.524;2022-08-19T14:20:24;6.43;;;5.82;;
21181;SDS011;10749;46.296;7.524;2022-08-19T14:22:50;7.25;;;6.03;;
21181;SDS011;10749;46.296;7.524;2022-08-19T14:25:17;6.88;;;5.85;;
21181;SDS011;10749;46.296;7.524;2022-08-19T14:27:44;6.32;;;5.72;;
21181;SDS011;10749;46.296;7.524;2022-08-19T14:30:11;6.63;;;5.43;;
21181;SDS011;10749;46.296;7.524;2022-08-19T14:32:39;6.38;;;5.75;;
21181;SDS011;10749;46.296;7.524;2022-08-19T14:35:05;6.13;;;5.53;;
21181;SDS011;10749;46.296;7.524;2022-08-19T14:37:32;5.85;;;5.35;;
21181;SDS011;10749;46.296;7.524;2022-08-19T14:39:59;5.68;;;5.18;;
21181;SDS011;10749;46.296;7.524;2022-08-19T14:42:24;6.00;;;5.30;;
21181;SDS011;10749;46.296;7.524;2022-08-19T14:44:49;5.60;;;5.10;;
21181;SDS011;10749;46.296;7.524;2022-08-19T14:47:15;5.25;;;4.75;;
21181;SDS011;10749;46.296;7.524;2022-08-19T14:49:40;5.53;;;4.60;;
21181;SDS011;10749;46.296;7.524;2022-08-19T14:52:05;6.55;;;5.07;;
21181;SDS011;10749;46.296;7.524;2022-08-19T14:54:31;5.22;;;4.72;;
21181;SDS011;10749;46.296;7.524;2022-08-19T14:56:56;6.28;;;4.93;;
21181;SDS011;10749;46.296;7.524;2022-08-19T14:59:22;6.00;;;4.72;;
21181;SDS011;10749;46.296;7.524;2022-08-19T15:01:47;7.65;;;5.18;;